sensor_id;sensor_type;location;lat;lon;timestamp;P1;durP1;ratioP1;P2;durP2;ratioP2
7471;SDS011;3777;48.722;8.110;2022-09-14T00:00:34;5.90;;;4.75;;
7471;SDS011;3777;48.722;8.110;2022-09-14T00:03:07;5.07;;;3.75;;
7471;SDS011;3777;48.722;8.110;2022-09-14T00:05:34;5.03;;;3.85;;
7471;SDS011;3777;48.722;8.110;2022-09-14T00:08:01;7.93;;;4.30;;
7471;SDS011;3777;48.722;8.110;2022-09-14T00:10:28;5.53;;;4.60;;
7471;SDS011;3777;48.722;8.110;2022-09-14T00:12:56;5.50;;;4.23;;
7471;SDS011;3777;48.722;8.110;2022-09-14T00:15:24;4.90;;;3.97;;
7471;SDS011;3777;48.722;8.110;2022-09-14T00:17:51;7.28;;;4.63;;
7471;SDS011;3777;48.722;8.110;2022-09-14T00:20:19;5.15;;;3.95;;
7471;SDS011;3777;48.722;8.110;2022-09-14T00:22:46;4.78;;;4.28;;
7471;SDS011;3777;48.722;8.110;2022-09-14T00:25:13;7.68;;;4.55;;
7471;SDS011;3777;48.722;8.110;2022-09-14T00:27:40;5.47;;;4.35;;
7471;SDS011;3777;48.722;8.110;2022-09-14T00:30:07;4.95;;;4.22;;
7471;SDS011;3777;48.722;8.110;2022-09-14T00:32:35;5.20;;;4.70;;
7471;SDS011;3777;48.722;8.110;2022-09-14T00:35:02;5.68;;;4.65;;
7471;SDS011;3777;48.722;8.110;2022-09-14T00:37:31;7.03;;;4.80;;
7471;SDS011;3777;48.722;8.110;2022-09-14T00:39:58;10.95;;;5.57;;
7471;SDS011;3777;48.722;8.110;2022-09-14T00:42:25;6.95;;;5.88;;
7471;SDS011;3777;48.722;8.110;2022-09-14T00:45:00;7.83;;;6.00;;
7471;SDS011;3777;48.722;8.110;2022-09-14T00:47:29;7.30;;;5.88;;
7471;SDS011;3777;48.722;8.110;2022-09-14T00:49:58;11.23;;;5.63;;
7471;SDS011;3777;48.722;8.110;2022-09-14T00:52:28;13.65;;;6.05;;
7471;SDS011;3777;48.722;8.110;2022-09-14T00:54:59;9.25;;;5.75;;
7471;SDS011;3777;48.722;8.110;2022-09-14T00:57:29;11.93;;;6.87;;
7471;SDS011;3777;48.722;8.110;2022-09-14T01:00:03;13.77;;;7.13;;
7471;SDS011;3777;48.722;8.110;2022-09-14T01:02:33;11.40;;;6.80;;
7471;SDS011;3777;48.722;8.110;2022-09-14T01:05:00;12.67;;;7.20;;
7471;SDS011;3777;48.722;8.110;2022-09-14T01:07:36;14.57;;;7.33;;
7471;SDS011;3777;48.722;8.110;2022-09-14T01:10:21;14.00;;;7.63;;
7471;SDS011;3777;48.722;8.110;2022-09-14T01:12:58;11.53;;;7.73;;
7471;SDS011;3777;48.722;8.110;2022-09-14T01:15:41;13.83;;;8.43;;
7471;SDS011;3777;48.722;8.110;2022-09-14T01:18:14;11.03;;;8.50;;
7471;SDS011;3777;48.722;8.110;2022-09-14T01:20:46;10.73;;;8.17;;
7471;SDS011;3777;48.722;8.110;2022-09-14T01:23:23;16.00;;;9.03;;
7471;SDS011;3777;48.722;8.110;2022-09-14T01:26:08;13.83;;;8.93;;
7471;SDS011;3777;48.722;8.110;2022-09-14T01:28:59;12.43;;;9.23;;
7471;SDS011;3777;48.722;8.110;2022-09-14T01:31:32;15.07;;;9.77;;
7471;SDS011;3777;48.722;8.110;2022-09-14T01:34:04;14.03;;;10.47;;
7471;SDS011;3777;48.722;8.110;2022-09-14T01:36:38;12.70;;;10.10;;
7471;SDS011;3777;48.722;8.110;2022-09-14T01:39:08;15.97;;;10.57;;
7471;SDS011;3777;48.722;8.110;2022-09-14T01:41:37;19.60;;;11.90;;
7471;SDS011;3777;48.722;8.110;2022-09-14T01:44:08;15.37;;;10.87;;
7471;SDS011;3777;48.722;8.110;2022-09-14T01:46:40;15.03;;;11.90;;
7471;SDS011;3777;48.722;8.110;2022-09-14T01:49:13;18.40;;;12.20;;
7471;SDS011;3777;48.722;8.110;2022-09-14T01:51:44;14.90;;;12.97;;
7471;SDS011;3777;48.722;8.110;2022-09-14T01:54:15;18.37;;;13.30;;
7471;SDS011;3777;48.722;8.110;2022-09-14T01:56:47;16.00;;;12.73;;
7471;SDS011;3777;48.722;8.110;2022-09-14T01:59:20;16.53;;;13.73;;
7471;SDS011;3777;48.722;8.110;2022-09-14T02:01:49;14.83;;;13.27;;
7471;SDS011;3777;48.722;8.110;2022-09-14T02:04:24;20.63;;;13.87;;
7471;SDS011;3777;48.722;8.110;2022-09-14T02:06:54;19.47;;;15.57;;
7471;SDS011;3777;48.722;8.110;2022-09-14T02:09:22;18.00;;;16.07;;
7471;SDS011;3777;48.722;8.110;2022-09-14T02:11:51;18.30;;;15.17;;
7471;SDS011;3777;48.722;8.110;2022-09-14T02:14:21;18.17;;;14.83;;
7471;SDS011;3777;48.722;8.110;2022-09-14T02:16:48;16.57;;;14.63;;
7471;SDS011;3777;48.722;8.110;2022-09-14T02:19:15;20.67;;;17.17;;
7471;SDS011;3777;48.722;8.110;2022-09-14T02:21:42;21.13;;;17.90;;
7471;SDS011;3777;48.722;8.110;2022-09-14T02:24:10;21.87;;;18.13;;
7471;SDS011;3777;48.722;8.110;2022-09-14T02:26:38;23.43;;;19.43;;
7471;SDS011;3777;48.722;8.110;2022-09-14T02:29:05;25.77;;;20.53;;
7471;SDS011;3777;48.722;8.110;2022-09-14T02:31:36;24.60;;;21.33;;
7471;SDS011;3777;48.722;8.110;2022-09-14T02:34:14;23.80;;;19.33;;
7471;SDS011;3777;48.722;8.110;2022-09-14T02:36:47;25.07;;;20.80;;
7471;SDS011;3777;48.722;8.110;2022-09-14T02:39:22;21.43;;;19.03;;
7471;SDS011;3777;48.722;8.110;2022-09-14T02:41:55;24.80;;;19.57;;
7471;SDS011;3777;48.722;8.110;2022-09-14T02:44:29;22.83;;;20.43;;
7471;SDS011;3777;48.722;8.110;2022-09-14T02:47:08;22.33;;;19.53;;
7471;SDS011;3777;48.722;8.110;2022-09-14T02:49:43;20.53;;;18.33;;
7471;SDS011;3777;48.722;8.110;2022-09-14T02:52:17;21.70;;;19.13;;
7471;SDS011;3777;48.722;8.110;2022-09-14T02:54:51;23.00;;;20.27;;
7471;SDS011;3777;48.722;8.110;2022-09-14T02:57:23;24.63;;;21.40;;
7471;SDS011;3777;48.722;8.110;2022-09-14T02:59:52;24.23;;;20.50;;
7471;SDS011;3777;48.722;8.110;2022-09-14T03:02:20;24.50;;;21.87;;
7471;SDS011;3777;48.722;8.110;2022-09-14T03:04:47;21.73;;;17.90;;
7471;SDS011;3777;48.722;8.110;2022-09-14T03:07:14;23.97;;;20.37;;
7471;SDS011;3777;48.722;8.110;2022-09-14T03:09:41;21.83;;;19.53;;
7471;SDS011;3777;48.722;8.110;2022-09-14T03:12:08;23.43;;;20.40;;
7471;SDS011;3777;48.722;8.110;2022-09-14T03:14:35;22.07;;;18.83;;
7471;SDS011;3777;48.722;8.110;2022-09-14T03:17:02;22.97;;;20.50;;
7471;SDS011;3777;48.722;8.110;2022-09-14T03:19:30;23.60;;;20.03;;
7471;SDS011;3777;48.722;8.110;2022-09-14T03:21:58;23.73;;;21.30;;
7471;SDS011;3777;48.722;8.110;2022-09-14T03:24:24;25.43;;;22.10;;
7471;SDS011;3777;48.722;8.110;2022-09-14T03:26:51;25.20;;;21.10;;
7471;SDS011;3777;48.722;8.110;2022-09-14T03:29:18;29.33;;;23.27;;
7471;SDS011;3777;48.722;8.110;2022-09-14T03:31:45;27.20;;;23.10;;
7471;SDS011;3777;48.722;8.110;2022-09-14T03:34:12;27.53;;;24.57;;
7471;SDS011;3777;48.722;8.110;2022-09-14T03:36:40;27.23;;;24.40;;
7471;SDS011;3777;48.722;8.110;2022-09-14T03:39:07;28.40;;;23.40;;
7471;SDS011;3777;48.722;8.110;2022-09-14T03:41:34;29.13;;;23.07;;
7471;SDS011;3777;48.722;8.110;2022-09-14T03:44:01;30.33;;;23.90;;
7471;SDS011;3777;48.722;8.110;2022-09-14T03:46:28;26.50;;;21.17;;
7471;SDS011;3777;48.722;8.110;2022-09-14T03:48:55;27.03;;;23.50;;
7471;SDS011;3777;48.722;8.110;2022-09-14T03:51:22;29.77;;;23.60;;
7471;SDS011;3777;48.722;8.110;2022-09-14T03:53:51;28.13;;;23.50;;
7471;SDS011;3777;48.722;8.110;2022-09-14T03:56:19;28.33;;;21.83;;
7471;SDS011;3777;48.722;8.110;2022-09-14T03:58:48;27.70;;;20.50;;
7471;SDS011;3777;48.722;8.110;2022-09-14T04:01:16;25.77;;;21.73;;
7471;SDS011;3777;48.722;8.110;2022-09-14T04:03:44;19.80;;;17.70;;
7471;SDS011;3777;48.722;8.110;2022-09-14T04:06:12;21.53;;;18.00;;
7471;SDS011;3777;48.722;8.110;2022-09-14T04:08:40;27.67;;;21.00;;
7471;SDS011;3777;48.722;8.110;2022-09-14T04:11:10;29.50;;;23.00;;
7471;SDS011;3777;48.722;8.110;2022-09-14T04:13:39;29.90;;;24.20;;
7471;SDS011;3777;48.722;8.110;2022-09-14T04:16:07;32.00;;;23.47;;
7471;SDS011;3777;48.722;8.110;2022-09-14T04:18:34;27.03;;;23.13;;
7471;SDS011;3777;48.722;8.110;2022-09-14T04:21:01;29.50;;;25.13;;
7471;SDS011;3777;48.722;8.110;2022-09-14T04:23:30;33.00;;;25.17;;
7471;SDS011;3777;48.722;8.110;2022-09-14T04:25:57;28.93;;;23.70;;
7471;SDS011;3777;48.722;8.110;2022-09-14T04:28:26;28.67;;;22.27;;
7471;SDS011;3777;48.722;8.110;2022-09-14T04:30:55;27.40;;;22.63;;
7471;SDS011;3777;48.722;8.110;2022-09-14T04:33:22;28.37;;;24.87;;
7471;SDS011;3777;48.722;8.110;2022-09-14T04:35:57;24.83;;;21.53;;
7471;SDS011;3777;48.722;8.110;2022-09-14T04:38:26;28.50;;;24.17;;
7471;SDS011;3777;48.722;8.110;2022-09-14T04:40:53;30.27;;;23.40;;
7471;SDS011;3777;48.722;8.110;2022-09-14T04:43:20;27.33;;;23.23;;
7471;SDS011;3777;48.722;8.110;2022-09-14T04:45:48;25.90;;;21.53;;
7471;SDS011;3777;48.722;8.110;2022-09-14T04:48:16;32.93;;;25.77;;
7471;SDS011;3777;48.722;8.110;2022-09-14T04:50:43;31.03;;;26.20;;
7471;SDS011;3777;48.722;8.110;2022-09-14T04:53:11;42.80;;;27.43;;
7471;SDS011;3777;48.722;8.110;2022-09-14T04:55:37;28.57;;;22.80;;
7471;SDS011;3777;48.722;8.110;2022-09-14T04:58:04;28.93;;;23.00;;
7471;SDS011;3777;48.722;8.110;2022-09-14T05:00:32;31.83;;;25.60;;
7471;SDS011;3777;48.722;8.110;2022-09-14T05:03:03;27.13;;;22.73;;
7471;SDS011;3777;48.722;8.110;2022-09-14T05:05:33;29.93;;;24.47;;
7471;SDS011;3777;48.722;8.110;2022-09-14T05:08:02;28.03;;;24.17;;
7471;SDS011;3777;48.722;8.110;2022-09-14T05:10:29;30.90;;;25.23;;
7471;SDS011;3777;48.722;8.110;2022-09-14T05:12:56;26.37;;;23.50;;
7471;SDS011;3777;48.722;8.110;2022-09-14T05:15:23;30.63;;;26.17;;
7471;SDS011;3777;48.722;8.110;2022-09-14T05:17:50;24.87;;;21.20;;
7471;SDS011;3777;48.722;8.110;2022-09-14T05:20:18;25.83;;;21.40;;
7471;SDS011;3777;48.722;8.110;2022-09-14T05:22:47;27.83;;;23.10;;
7471;SDS011;3777;48.722;8.110;2022-09-14T05:25:15;32.13;;;24.63;;
7471;SDS011;3777;48.722;8.110;2022-09-14T05:27:42;33.70;;;26.97;;
7471;SDS011;3777;48.722;8.110;2022-09-14T05:30:09;35.37;;;27.57;;
7471;SDS011;3777;48.722;8.110;2022-09-14T05:32:36;34.40;;;27.80;;
7471;SDS011;3777;48.722;8.110;2022-09-14T05:35:04;38.47;;;30.27;;
7471;SDS011;3777;48.722;8.110;2022-09-14T05:37:32;32.07;;;25.73;;
7471;SDS011;3777;48.722;8.110;2022-09-14T05:39:59;31.73;;;25.47;;
7471;SDS011;3777;48.722;8.110;2022-09-14T05:42:26;31.20;;;25.43;;
7471;SDS011;3777;48.722;8.110;2022-09-14T05:44:53;38.80;;;27.90;;
7471;SDS011;3777;48.722;8.110;2022-09-14T05:47:20;32.80;;;26.63;;
7471;SDS011;3777;48.722;8.110;2022-09-14T05:49:47;32.33;;;26.30;;
7471;SDS011;3777;48.722;8.110;2022-09-14T05:52:14;30.07;;;24.13;;
7471;SDS011;3777;48.722;8.110;2022-09-14T05:54:42;28.67;;;23.97;;
7471;SDS011;3777;48.722;8.110;2022-09-14T05:57:09;25.30;;;19.67;;
7471;SDS011;3777;48.722;8.110;2022-09-14T05:59:36;23.77;;;20.23;;
7471;SDS011;3777;48.722;8.110;2022-09-14T06:02:03;26.20;;;20.83;;
7471;SDS011;3777;48.722;8.110;2022-09-14T06:04:30;27.57;;;22.23;;
7471;SDS011;3777;48.722;8.110;2022-09-14T06:06:58;25.77;;;22.00;;
7471;SDS011;3777;48.722;8.110;2022-09-14T06:09:25;22.63;;;19.87;;
7471;SDS011;3777;48.722;8.110;2022-09-14T06:11:53;28.50;;;23.33;;
7471;SDS011;3777;48.722;8.110;2022-09-14T06:14:20;24.37;;;19.77;;
7471;SDS011;3777;48.722;8.110;2022-09-14T06:16:47;22.63;;;18.33;;
7471;SDS011;3777;48.722;8.110;2022-09-14T06:19:14;22.63;;;17.37;;
7471;SDS011;3777;48.722;8.110;2022-09-14T06:21:41;26.87;;;22.27;;
7471;SDS011;3777;48.722;8.110;2022-09-14T06:24:08;19.67;;;17.60;;
7471;SDS011;3777;48.722;8.110;2022-09-14T06:26:37;22.03;;;18.90;;
7471;SDS011;3777;48.722;8.110;2022-09-14T06:29:06;19.20;;;16.27;;
7471;SDS011;3777;48.722;8.110;2022-09-14T06:31:33;23.67;;;20.37;;
7471;SDS011;3777;48.722;8.110;2022-09-14T06:34:00;23.43;;;19.37;;
7471;SDS011;3777;48.722;8.110;2022-09-14T06:36:28;30.00;;;23.20;;
7471;SDS011;3777;48.722;8.110;2022-09-14T06:38:55;23.93;;;18.47;;
7471;SDS011;3777;48.722;8.110;2022-09-14T06:41:24;25.23;;;19.67;;
7471;SDS011;3777;48.722;8.110;2022-09-14T06:43:54;18.67;;;16.27;;
7471;SDS011;3777;48.722;8.110;2022-09-14T06:46:24;23.40;;;17.80;;
7471;SDS011;3777;48.722;8.110;2022-09-14T06:48:53;24.03;;;18.93;;
7471;SDS011;3777;48.722;8.110;2022-09-14T06:51:24;16.27;;;14.43;;
7471;SDS011;3777;48.722;8.110;2022-09-14T06:53:52;26.93;;;21.30;;
7471;SDS011;3777;48.722;8.110;2022-09-14T06:56:20;23.30;;;19.20;;
7471;SDS011;3777;48.722;8.110;2022-09-14T06:58:47;18.70;;;16.80;;
7471;SDS011;3777;48.722;8.110;2022-09-14T07:01:16;20.97;;;18.70;;
7471;SDS011;3777;48.722;8.110;2022-09-14T07:03:46;20.05;;;17.08;;
7471;SDS011;3777;48.722;8.110;2022-09-14T07:06:16;23.93;;;17.83;;
7471;SDS011;3777;48.722;8.110;2022-09-14T07:08:45;19.30;;;15.23;;
7471;SDS011;3777;48.722;8.110;2022-09-14T07:11:13;16.50;;;13.68;;
7471;SDS011;3777;48.722;8.110;2022-09-14T07:13:41;21.23;;;15.63;;
7471;SDS011;3777;48.722;8.110;2022-09-14T07:16:08;17.45;;;13.23;;
7471;SDS011;3777;48.722;8.110;2022-09-14T07:18:36;13.27;;;11.88;;
7471;SDS011;3777;48.722;8.110;2022-09-14T07:21:05;15.98;;;12.70;;
7471;SDS011;3777;48.722;8.110;2022-09-14T07:23:34;19.10;;;15.70;;
7471;SDS011;3777;48.722;8.110;2022-09-14T07:26:03;16.05;;;12.98;;
7471;SDS011;3777;48.722;8.110;2022-09-14T07:28:32;17.10;;;15.27;;
7471;SDS011;3777;48.722;8.110;2022-09-14T07:31:00;18.48;;;15.45;;
7471;SDS011;3777;48.722;8.110;2022-09-14T07:33:27;20.92;;;15.18;;
7471;SDS011;3777;48.722;8.110;2022-09-14T07:36:02;13.93;;;12.45;;
7471;SDS011;3777;48.722;8.110;2022-09-14T07:38:32;14.40;;;12.90;;
7471;SDS011;3777;48.722;8.110;2022-09-14T07:40:59;15.65;;;13.68;;
7471;SDS011;3777;48.722;8.110;2022-09-14T07:43:26;14.63;;;12.73;;
7471;SDS011;3777;48.722;8.110;2022-09-14T07:45:54;13.32;;;11.93;;
7471;SDS011;3777;48.722;8.110;2022-09-14T07:48:21;13.38;;;11.20;;
7471;SDS011;3777;48.722;8.110;2022-09-14T07:50:57;12.20;;;10.50;;
7471;SDS011;3777;48.722;8.110;2022-09-14T07:53:26;13.73;;;11.00;;
7471;SDS011;3777;48.722;8.110;2022-09-14T07:55:56;10.93;;;9.85;;
7471;SDS011;3777;48.722;8.110;2022-09-14T07:58:24;14.50;;;10.65;;
7471;SDS011;3777;48.722;8.110;2022-09-14T08:00:51;10.30;;;9.13;;
7471;SDS011;3777;48.722;8.110;2022-09-14T08:03:22;9.77;;;8.00;;
7471;SDS011;3777;48.722;8.110;2022-09-14T08:05:56;11.20;;;7.65;;
7471;SDS011;3777;48.722;8.110;2022-09-14T08:08:24;8.15;;;6.85;;
7471;SDS011;3777;48.722;8.110;2022-09-14T08:10:54;7.35;;;5.85;;
7471;SDS011;3777;48.722;8.110;2022-09-14T08:13:22;7.28;;;6.13;;
7471;SDS011;3777;48.722;8.110;2022-09-14T08:15:49;9.20;;;6.28;;
7471;SDS011;3777;48.722;8.110;2022-09-14T08:18:16;6.97;;;5.50;;
7471;SDS011;3777;48.722;8.110;2022-09-14T08:20:43;4.78;;;4.32;;
7471;SDS011;3777;48.722;8.110;2022-09-14T08:23:10;6.05;;;4.55;;
7471;SDS011;3777;48.722;8.110;2022-09-14T08:25:37;6.90;;;5.13;;
7471;SDS011;3777;48.722;8.110;2022-09-14T08:28:06;5.00;;;4.43;;
7471;SDS011;3777;48.722;8.110;2022-09-14T08:30:32;8.30;;;5.18;;
7471;SDS011;3777;48.722;8.110;2022-09-14T08:32:59;7.78;;;5.13;;
7471;SDS011;3777;48.722;8.110;2022-09-14T08:35:26;6.20;;;4.82;;
7471;SDS011;3777;48.722;8.110;2022-09-14T08:37:53;6.25;;;4.53;;
7471;SDS011;3777;48.722;8.110;2022-09-14T08:40:20;8.27;;;4.43;;
7471;SDS011;3777;48.722;8.110;2022-09-14T08:42:47;8.02;;;4.50;;
7471;SDS011;3777;48.722;8.110;2022-09-14T08:45:18;5.13;;;4.05;;
7471;SDS011;3777;48.722;8.110;2022-09-14T08:47:46;6.57;;;4.35;;
7471;SDS011;3777;48.722;8.110;2022-09-14T08:50:14;5.80;;;3.70;;
7471;SDS011;3777;48.722;8.110;2022-09-14T08:52:43;6.30;;;3.58;;
7471;SDS011;3777;48.722;8.110;2022-09-14T08:55:16;5.38;;;3.75;;
7471;SDS011;3777;48.722;8.110;2022-09-14T08:57:50;3.92;;;3.38;;
7471;SDS011;3777;48.722;8.110;2022-09-14T09:00:23;5.47;;;3.63;;
7471;SDS011;3777;48.722;8.110;2022-09-14T09:06:01;5.03;;;2.95;;
7471;SDS011;3777;48.722;8.110;2022-09-14T09:08:36;4.00;;;2.70;;
7471;SDS011;3777;48.722;8.110;2022-09-14T09:11:08;4.10;;;3.15;;
7471;SDS011;3777;48.722;8.110;2022-09-14T09:13:40;11.00;;;3.70;;
7471;SDS011;3777;48.722;8.110;2022-09-14T09:16:10;3.85;;;3.17;;
7471;SDS011;3777;48.722;8.110;2022-09-14T09:18:43;4.82;;;3.20;;
7471;SDS011;3777;48.722;8.110;2022-09-14T09:21:13;8.05;;;2.90;;
7471;SDS011;3777;48.722;8.110;2022-09-14T09:23:42;6.80;;;2.70;;
7471;SDS011;3777;48.722;8.110;2022-09-14T09:26:11;5.28;;;2.75;;
7471;SDS011;3777;48.722;8.110;2022-09-14T09:28:43;5.32;;;2.50;;
7471;SDS011;3777;48.722;8.110;2022-09-14T09:31:16;3.88;;;2.60;;
7471;SDS011;3777;48.722;8.110;2022-09-14T09:33:55;2.90;;;2.50;;
7471;SDS011;3777;48.722;8.110;2022-09-14T09:36:22;5.43;;;2.80;;
7471;SDS011;3777;48.722;8.110;2022-09-14T09:38:50;5.90;;;2.85;;
7471;SDS011;3777;48.722;8.110;2022-09-14T09:41:18;6.05;;;2.83;;
7471;SDS011;3777;48.722;8.110;2022-09-14T09:43:58;6.15;;;2.88;;
7471;SDS011;3777;48.722;8.110;2022-09-14T09:46:27;4.70;;;2.90;;
7471;SDS011;3777;48.722;8.110;2022-09-14T09:48:56;4.55;;;2.80;;
7471;SDS011;3777;48.722;8.110;2022-09-14T09:51:25;4.72;;;2.60;;
7471;SDS011;3777;48.722;8.110;2022-09-14T09:53:54;6.03;;;2.50;;
7471;SDS011;3777;48.722;8.110;2022-09-14T09:56:27;4.13;;;2.40;;
7471;SDS011;3777;48.722;8.110;2022-09-14T09:58:56;6.53;;;2.85;;
7471;SDS011;3777;48.722;8.110;2022-09-14T10:01:26;4.88;;;2.60;;
7471;SDS011;3777;48.722;8.110;2022-09-14T10:04:00;4.88;;;2.80;;
7471;SDS011;3777;48.722;8.110;2022-09-14T10:06:29;4.65;;;2.67;;
7471;SDS011;3777;48.722;8.110;2022-09-14T10:08:57;7.60;;;2.92;;
7471;SDS011;3777;48.722;8.110;2022-09-14T10:11:25;5.13;;;2.58;;
7471;SDS011;3777;48.722;8.110;2022-09-14T10:13:55;3.40;;;2.60;;
7471;SDS011;3777;48.722;8.110;2022-09-14T10:16:22;2.95;;;2.42;;
7471;SDS011;3777;48.722;8.110;2022-09-14T10:18:52;3.30;;;2.30;;
7471;SDS011;3777;48.722;8.110;2022-09-14T10:21:19;2.67;;;2.40;;
7471;SDS011;3777;48.722;8.110;2022-09-14T10:24:00;5.95;;;2.65;;
7471;SDS011;3777;48.722;8.110;2022-09-14T10:26:30;4.78;;;2.60;;
7471;SDS011;3777;48.722;8.110;2022-09-14T10:29:18;4.20;;;2.50;;
7471;SDS011;3777;48.722;8.110;2022-09-14T10:31:59;4.35;;;2.65;;
7471;SDS011;3777;48.722;8.110;2022-09-14T10:34:31;5.13;;;2.45;;
7471;SDS011;3777;48.722;8.110;2022-09-14T10:37:03;6.45;;;2.70;;
7471;SDS011;3777;48.722;8.110;2022-09-14T10:39:40;5.22;;;2.40;;
7471;SDS011;3777;48.722;8.110;2022-09-14T10:42:13;3.47;;;1.95;;
7471;SDS011;3777;48.722;8.110;2022-09-14T10:45:02;3.13;;;2.15;;
7471;SDS011;3777;48.722;8.110;2022-09-14T10:47:43;2.53;;;1.70;;
7471;SDS011;3777;48.722;8.110;2022-09-14T10:50:27;6.30;;;2.45;;
7471;SDS011;3777;48.722;8.110;2022-09-14T10:53:07;3.17;;;2.25;;
7471;SDS011;3777;48.722;8.110;2022-09-14T10:55:42;4.88;;;2.22;;
7471;SDS011;3777;48.722;8.110;2022-09-14T10:58:22;4.50;;;2.17;;
7471;SDS011;3777;48.722;8.110;2022-09-14T11:01:01;5.18;;;2.10;;
7471;SDS011;3777;48.722;8.110;2022-09-14T11:03:41;3.67;;;2.17;;
7471;SDS011;3777;48.722;8.110;2022-09-14T11:06:24;4.72;;;2.72;;
7471;SDS011;3777;48.722;8.110;2022-09-14T11:09:03;7.60;;;2.60;;
7471;SDS011;3777;48.722;8.110;2022-09-14T11:11:41;4.47;;;2.33;;
7471;SDS011;3777;48.722;8.110;2022-09-14T11:14:21;5.28;;;2.50;;
7471;SDS011;3777;48.722;8.110;2022-09-14T11:17:12;4.38;;;2.50;;
7471;SDS011;3777;48.722;8.110;2022-09-14T11:19:57;6.13;;;2.63;;
7471;SDS011;3777;48.722;8.110;2022-09-14T11:22:36;5.88;;;2.50;;
7471;SDS011;3777;48.722;8.110;2022-09-14T11:25:10;4.32;;;2.78;;
7471;SDS011;3777;48.722;8.110;2022-09-14T11:27:42;4.95;;;2.53;;
7471;SDS011;3777;48.722;8.110;2022-09-14T11:30:14;3.60;;;2.75;;
7471;SDS011;3777;48.722;8.110;2022-09-14T11:32:44;5.38;;;2.65;;
7471;SDS011;3777;48.722;8.110;2022-09-14T11:35:16;3.80;;;2.72;;
7471;SDS011;3777;48.722;8.110;2022-09-14T11:37:47;3.78;;;2.65;;
7471;SDS011;3777;48.722;8.110;2022-09-14T11:40:19;6.25;;;2.95;;
7471;SDS011;3777;48.722;8.110;2022-09-14T11:42:54;5.60;;;2.70;;
7471;SDS011;3777;48.722;8.110;2022-09-14T11:45:25;3.70;;;2.80;;
7471;SDS011;3777;48.722;8.110;2022-09-14T11:47:58;5.88;;;3.00;;
7471;SDS011;3777;48.722;8.110;2022-09-14T11:50:31;5.25;;;3.10;;
7471;SDS011;3777;48.722;8.110;2022-09-14T11:53:08;8.25;;;3.03;;
7471;SDS011;3777;48.722;8.110;2022-09-14T11:55:36;4.40;;;2.92;;
7471;SDS011;3777;48.722;8.110;2022-09-14T11:58:06;23.83;;;3.60;;
7471;SDS011;3777;48.722;8.110;2022-09-14T12:00:57;16.73;;;3.65;;
7471;SDS011;3777;48.722;8.110;2022-09-14T12:09:39;12.85;;;4.53;;
7471;SDS011;3777;48.722;8.110;2022-09-14T12:14:58;8.82;;;4.47;;
7471;SDS011;3777;48.722;8.110;2022-09-14T12:17:36;8.70;;;3.75;;
7471;SDS011;3777;48.722;8.110;2022-09-14T12:23:12;9.00;;;3.70;;
7471;SDS011;3777;48.722;8.110;2022-09-14T12:29:03;4.97;;;2.35;;
7471;SDS011;3777;48.722;8.110;2022-09-14T12:32:04;5.30;;;2.30;;
7471;SDS011;3777;48.722;8.110;2022-09-14T12:37:55;2.77;;;2.00;;
7471;SDS011;3777;48.722;8.110;2022-09-14T12:40:32;3.23;;;2.40;;
7471;SDS011;3777;48.722;8.110;2022-09-14T12:46:10;3.40;;;2.13;;
7471;SDS011;3777;48.722;8.110;2022-09-14T12:48:58;3.43;;;2.23;;
7471;SDS011;3777;48.722;8.110;2022-09-14T12:51:31;2.87;;;2.33;;
7471;SDS011;3777;48.722;8.110;2022-09-14T12:54:14;4.60;;;2.67;;
7471;SDS011;3777;48.722;8.110;2022-09-14T12:56:47;5.83;;;3.43;;
7471;SDS011;3777;48.722;8.110;2022-09-14T12:59:27;4.43;;;3.13;;
7471;SDS011;3777;48.722;8.110;2022-09-14T13:02:09;4.23;;;2.70;;
7471;SDS011;3777;48.722;8.110;2022-09-14T13:04:51;4.07;;;2.70;;
7471;SDS011;3777;48.722;8.110;2022-09-14T13:07:19;3.00;;;2.50;;
7471;SDS011;3777;48.722;8.110;2022-09-14T13:09:48;5.07;;;2.30;;
7471;SDS011;3777;48.722;8.110;2022-09-14T13:12:19;5.27;;;2.73;;
7471;SDS011;3777;48.722;8.110;2022-09-14T13:14:52;3.27;;;2.33;;
7471;SDS011;3777;48.722;8.110;2022-09-14T13:17:24;3.30;;;2.20;;
7471;SDS011;3777;48.722;8.110;2022-09-14T13:19:55;3.13;;;2.60;;
7471;SDS011;3777;48.722;8.110;2022-09-14T13:22:24;3.90;;;2.23;;
7471;SDS011;3777;48.722;8.110;2022-09-14T13:24:53;3.30;;;2.30;;
7471;SDS011;3777;48.722;8.110;2022-09-14T13:27:22;3.57;;;2.40;;
7471;SDS011;3777;48.722;8.110;2022-09-14T13:29:56;3.17;;;2.27;;
7471;SDS011;3777;48.722;8.110;2022-09-14T13:32:27;4.95;;;2.42;;
7471;SDS011;3777;48.722;8.110;2022-09-14T13:34:54;2.70;;;2.42;;
7471;SDS011;3777;48.722;8.110;2022-09-14T13:37:21;4.10;;;2.42;;
7471;SDS011;3777;48.722;8.110;2022-09-14T13:39:50;4.85;;;2.50;;
7471;SDS011;3777;48.722;8.110;2022-09-14T13:42:18;3.80;;;2.47;;
7471;SDS011;3777;48.722;8.110;2022-09-14T13:44:46;3.60;;;2.33;;
7471;SDS011;3777;48.722;8.110;2022-09-14T13:47:15;5.13;;;2.13;;
7471;SDS011;3777;48.722;8.110;2022-09-14T13:49:46;3.28;;;2.28;;
7471;SDS011;3777;48.722;8.110;2022-09-14T13:52:18;4.38;;;2.08;;
7471;SDS011;3777;48.722;8.110;2022-09-14T13:54:54;2.90;;;1.60;;
7471;SDS011;3777;48.722;8.110;2022-09-14T13:57:32;2.53;;;1.73;;
7471;SDS011;3777;48.722;8.110;2022-09-14T14:02:46;3.20;;;2.03;;
7471;SDS011;3777;48.722;8.110;2022-09-14T14:05:25;2.05;;;1.70;;
7471;SDS011;3777;48.722;8.110;2022-09-14T14:07:53;3.10;;;1.83;;
7471;SDS011;3777;48.722;8.110;2022-09-14T14:10:24;3.97;;;1.85;;
7471;SDS011;3777;48.722;8.110;2022-09-14T14:12:53;2.03;;;1.70;;
7471;SDS011;3777;48.722;8.110;2022-09-14T14:15:30;1.83;;;1.45;;
7471;SDS011;3777;48.722;8.110;2022-09-14T14:21:10;2.17;;;1.40;;
7471;SDS011;3777;48.722;8.110;2022-09-14T14:23:40;1.95;;;1.20;;
7471;SDS011;3777;48.722;8.110;2022-09-14T14:26:09;2.10;;;1.67;;
7471;SDS011;3777;48.722;8.110;2022-09-14T14:28:39;4.85;;;1.50;;
7471;SDS011;3777;48.722;8.110;2022-09-14T14:31:11;3.25;;;1.60;;
7471;SDS011;3777;48.722;8.110;2022-09-14T14:33:42;1.60;;;1.30;;
7471;SDS011;3777;48.722;8.110;2022-09-14T14:36:12;1.70;;;1.50;;
7471;SDS011;3777;48.722;8.110;2022-09-14T14:38:39;3.90;;;1.50;;
7471;SDS011;3777;48.722;8.110;2022-09-14T14:41:09;1.83;;;1.50;;
7471;SDS011;3777;48.722;8.110;2022-09-14T14:43:40;1.90;;;1.50;;
7471;SDS011;3777;48.722;8.110;2022-09-14T14:46:10;1.73;;;1.55;;
7471;SDS011;3777;48.722;8.110;2022-09-14T14:48:38;5.03;;;1.80;;
7471;SDS011;3777;48.722;8.110;2022-09-14T14:51:05;2.03;;;1.60;;
7471;SDS011;3777;48.722;8.110;2022-09-14T14:53:36;3.00;;;1.80;;
7471;SDS011;3777;48.722;8.110;2022-09-14T14:56:03;3.72;;;1.88;;
7471;SDS011;3777;48.722;8.110;2022-09-14T14:58:31;2.75;;;1.60;;
7471;SDS011;3777;48.722;8.110;2022-09-14T15:00:58;2.42;;;1.60;;
7471;SDS011;3777;48.722;8.110;2022-09-14T15:03:25;1.65;;;1.48;;
7471;SDS011;3777;48.722;8.110;2022-09-14T15:05:52;2.28;;;1.70;;
7471;SDS011;3777;48.722;8.110;2022-09-14T15:08:18;2.10;;;1.60;;
7471;SDS011;3777;48.722;8.110;2022-09-14T15:10:47;4.32;;;1.60;;
7471;SDS011;3777;48.722;8.110;2022-09-14T15:13:20;2.08;;;1.30;;
7471;SDS011;3777;48.722;8.110;2022-09-14T15:15:47;2.75;;;1.52;;
7471;SDS011;3777;48.722;8.110;2022-09-14T15:18:14;2.53;;;1.50;;
7471;SDS011;3777;48.722;8.110;2022-09-14T15:20:41;2.97;;;1.60;;
7471;SDS011;3777;48.722;8.110;2022-09-14T15:23:08;3.95;;;1.42;;
7471;SDS011;3777;48.722;8.110;2022-09-14T15:25:38;2.35;;;1.50;;
7471;SDS011;3777;48.722;8.110;2022-09-14T15:28:06;3.83;;;1.48;;
7471;SDS011;3777;48.722;8.110;2022-09-14T15:30:33;3.38;;;1.95;;
7471;SDS011;3777;48.722;8.110;2022-09-14T15:33:00;2.45;;;1.70;;
7471;SDS011;3777;48.722;8.110;2022-09-14T15:35:27;2.00;;;1.70;;
7471;SDS011;3777;48.722;8.110;2022-09-14T15:37:54;2.58;;;1.77;;
7471;SDS011;3777;48.722;8.110;2022-09-14T15:40:21;5.43;;;1.98;;
7471;SDS011;3777;48.722;8.110;2022-09-14T15:42:48;3.40;;;1.63;;
7471;SDS011;3777;48.722;8.110;2022-09-14T15:45:16;2.75;;;1.80;;
7471;SDS011;3777;48.722;8.110;2022-09-14T15:47:43;3.08;;;1.90;;
7471;SDS011;3777;48.722;8.110;2022-09-14T15:50:11;2.65;;;1.63;;
7471;SDS011;3777;48.722;8.110;2022-09-14T15:52:38;1.80;;;1.50;;